Ana Sayfa
METAR-TAF:

METAR-TAF

Havaalanları :

Cape Lisburne, Alaska, Amerika Birleşik Devletleri

Enlem: 68-53N, Boylam: 166-06W, yükseklik: 4 m

Güncel hava durumu gözlemi

Rapor saat 05:55 UTC de 22 dakika önce yapıldı.
Rüzgar kuzeydoğudan 22 kt
Sıcaklık 0°C
Nem 93%
Basınç 1018 hPa
Görüş mesafesi: 16.1 km
1000 ft yükseklikte çok bulutlu
hafif kar sağanakları

METAR: PALU 270555Z AUTO 04022KT 10SM -SHSN OVC010 00/M01 A3006 RMK AO2 PK WND 05026/0517 SNB0403E0525SHSNB0525 SLP179 P0000 60000 T00041008 10008 20002 57018

Saat: 22:17 (06:17 UTC)


TAF: eksik

4.000'den fazla havaalanı için hava durumu gözlemleri ve tahminleri (METAR ve TAF raporları).

Kullanılabilir istasyonlar harita üzerinde sarı ve kırmızı noktalarla gösterilir.

İstasyonun adını görmek için fareyi noktanın üzerinde gezdirin.

Sonrasında hava gözlem ve tahminlerini görmek için tıklayın.

Haritayı değiştirmek için: yaklaştırmak için siyah artı işaretli yeşil düğmeye ve uzaklaştırmak için de eksi işaretli düğmeye hızla tıklayın; bitişik haritalar için yeşil okları kullanın.


METAR-TAF: